CSKFT LPGR-LPLA

Flight info

Callsign CSKFT
Flight time 0h 21m
Altitude 3500
Route VESOB
Aircraft BE58/L-SDFGRY/C

Departure

Time 2026-05-06 22:56
Airport Graciosa Airport (LPGR)

Arrival

Time 2026-05-06 23:17
Airport Lajes Airport (LPLA)
Time Latitude Longitude Altitude Speed Heading
2026-05-06 22:43 39.09136 -28.02798 126 ft 0 kts 356°
2026-05-06 22:53 39.09137 -28.02799 72 ft 1 kts 341°
2026-05-06 22:53 39.09162 -28.02825 71 ft 9 kts 326°
2026-05-06 22:53 39.09221 -28.02850 68 ft 7 kts
2026-05-06 22:54 39.09248 -28.02792 72 ft 11 kts 73°
2026-05-06 22:54 39.09269 -28.02681 69 ft 11 kts 76°
2026-05-06 22:54 39.09285 -28.02588 70 ft 11 kts 77°
2026-05-06 22:54 39.09304 -28.02479 71 ft 14 kts 78°
2026-05-06 22:55 39.09327 -28.02345 65 ft 15 kts 76°
2026-05-06 22:55 39.09341 -28.02302 64 ft 3 kts 235°
2026-05-06 22:55 39.09333 -28.02320 68 ft 6 kts 243°
2026-05-06 22:55 39.09281 -28.02600 75 ft 71 kts 255°
2026-05-06 22:56 39.09159 -28.03367 334 ft 95 kts 256°
2026-05-06 22:56 39.09008 -28.04158 905 ft 89 kts 255°
2026-05-06 22:56 39.08846 -28.04951 1387 ft 95 kts 255°
2026-05-06 22:56 39.08672 -28.05797 1934 ft 99 kts 257°
2026-05-06 22:57 39.08496 -28.06645 2497 ft 99 kts 258°
2026-05-06 22:57 39.08315 -28.07496 3066 ft 98 kts 258°
2026-05-06 22:57 39.08130 -28.08343 3615 ft 98 kts 260°
2026-05-06 22:57 39.07943 -28.09188 4152 ft 98 kts 261°
2026-05-06 22:58 39.07751 -28.10024 4706 ft 97 kts 260°
2026-05-06 22:58 39.07846 -28.10806 5231 ft 97 kts 316°
2026-05-06 22:58 39.08548 -28.10769 5739 ft 121 kts 26°
2026-05-06 22:58 39.08859 -28.09723 6129 ft 138 kts 100°
2026-05-06 22:59 39.08455 -28.08582 6588 ft 144 kts 109°
2026-05-06 22:59 39.08476 -28.07287 6944 ft 159 kts 71°
2026-05-06 22:59 39.08759 -28.05723 6909 ft 195 kts 73°
2026-05-06 22:59 39.09061 -28.03926 6903 ft 214 kts 74°
2026-05-06 23:00 39.09389 -28.02011 6894 ft 223 kts 74°
2026-05-06 23:00 39.09728 -28.00041 6889 ft 227 kts 74°
2026-05-06 23:00 39.10074 -27.98047 6889 ft 229 kts 74°
2026-05-06 23:00 39.10418 -27.96047 6888 ft 229 kts 74°
2026-05-06 23:01 39.10765 -27.94036 6883 ft 230 kts 74°
2026-05-06 23:01 39.11112 -27.92026 6883 ft 230 kts 74°
2026-05-06 23:01 39.11458 -27.90012 6884 ft 230 kts 74°
2026-05-06 23:01 39.11805 -27.87997 6874 ft 230 kts 75°
2026-05-06 23:02 39.12151 -27.85982 6874 ft 230 kts 75°
2026-05-06 23:02 39.12493 -27.83996 6875 ft 230 kts 75°
2026-05-06 23:02 39.12839 -27.81985 6878 ft 230 kts 75°
2026-05-06 23:02 39.13188 -27.79964 6878 ft 230 kts 75°
2026-05-06 23:03 39.13535 -27.77951 6875 ft 230 kts 75°
2026-05-06 23:03 39.13882 -27.75939 6887 ft 230 kts 76°
2026-05-06 23:03 39.14229 -27.73931 6887 ft 230 kts 76°
2026-05-06 23:03 39.14576 -27.71920 6885 ft 230 kts 76°
2026-05-06 23:04 39.14924 -27.69906 6885 ft 230 kts 76°
2026-05-06 23:04 39.15273 -27.67888 6886 ft 231 kts 76°
2026-05-06 23:04 39.15622 -27.65872 6887 ft 230 kts 76°
2026-05-06 23:04 39.15971 -27.63859 6886 ft 230 kts 76°
2026-05-06 23:05 39.16227 -27.61831 6879 ft 230 kts 89°
2026-05-06 23:05 39.15872 -27.59856 6867 ft 226 kts 123°
2026-05-06 23:05 39.14885 -27.58329 6871 ft 221 kts 140°
2026-05-06 23:05 39.13797 -27.56931 6874 ft 221 kts 141°
2026-05-06 23:06 39.12705 -27.55544 6877 ft 221 kts 141°
2026-05-06 23:06 39.11634 -27.54176 6823 ft 216 kts 141°
2026-05-06 23:06 39.10546 -27.52789 6632 ft 223 kts 141°
2026-05-06 23:06 39.09435 -27.51382 6436 ft 220 kts 141°
2026-05-06 23:07 39.08391 -27.50056 6220 ft 209 kts 141°
2026-05-06 23:07 39.07367 -27.48766 6010 ft 203 kts 141°
2026-05-06 23:07 39.06369 -27.47509 5794 ft 199 kts 141°
2026-05-06 23:07 39.05381 -27.46270 5592 ft 197 kts 141°
2026-05-06 23:08 39.04399 -27.45047 5386 ft 196 kts 141°
2026-05-06 23:08 39.03426 -27.43831 5183 ft 194 kts 141°
2026-05-06 23:08 39.02461 -27.42623 4976 ft 193 kts 141°
2026-05-06 23:08 39.01501 -27.41423 4770 ft 192 kts 141°
2026-05-06 23:09 39.00546 -27.40229 4559 ft 191 kts 141°
2026-05-06 23:09 38.99618 -27.39067 4539 ft 182 kts 141°
2026-05-06 23:09 38.98705 -27.37923 4538 ft 190 kts 141°
2026-05-06 23:09 38.97717 -27.36708 4551 ft 201 kts 141°
2026-05-06 23:10 38.96689 -27.35451 4563 ft 206 kts 141°
2026-05-06 23:10 38.95605 -27.34136 4214 ft 220 kts 141°
2026-05-06 23:10 38.94518 -27.32819 3789 ft 210 kts 141°
2026-05-06 23:10 38.93477 -27.31550 3365 ft 204 kts 141°
2026-05-06 23:11 38.92460 -27.30308 2932 ft 200 kts 141°
2026-05-06 23:11 38.91508 -27.29145 2877 ft 182 kts 141°
2026-05-06 23:11 38.90629 -27.28053 2870 ft 171 kts 141°
2026-05-06 23:11 38.89795 -27.27005 2869 ft 165 kts 141°
2026-05-06 23:12 38.88985 -27.25982 2872 ft 162 kts 141°
2026-05-06 23:12 38.88189 -27.24973 2869 ft 160 kts 141°
2026-05-06 23:12 38.87397 -27.23969 2872 ft 159 kts 141°
2026-05-06 23:12 38.86769 -27.22793 2875 ft 163 kts 118°
2026-05-06 23:13 38.86323 -27.21448 2881 ft 164 kts 117°
2026-05-06 23:13 38.85878 -27.20100 2880 ft 164 kts 117°
2026-05-06 23:13 38.85349 -27.18814 2875 ft 162 kts 136°
2026-05-06 23:13 38.84566 -27.17900 2875 ft 142 kts 144°
2026-05-06 23:14 38.83858 -27.17115 2876 ft 128 kts 146°
2026-05-06 23:14 38.83201 -27.16414 2871 ft 118 kts 149°
2026-05-06 23:14 38.82589 -27.15775 2872 ft 109 kts 149°
2026-05-06 23:14 38.81977 -27.15142 2546 ft 123 kts 149°
2026-05-06 23:15 38.81281 -27.14411 2018 ft 133 kts 147°
2026-05-06 23:15 38.80552 -27.13648 1490 ft 137 kts 146°
2026-05-06 23:15 38.79812 -27.12875 941 ft 137 kts 146°
2026-05-06 23:15 38.79091 -27.12117 503 ft 126 kts 145°
2026-05-06 23:16 38.78492 -27.11486 324 ft 97 kts 147°
2026-05-06 23:16 38.78016 -27.10986 225 ft 85 kts 149°
2026-05-06 23:16 38.77548 -27.10488 205 ft 90 kts 145°
2026-05-06 23:16 38.77066 -27.10004 180 ft 85 kts 141°
2026-05-06 23:17 38.76649 -27.09566 175 ft 66 kts 143°
2026-05-06 23:17 38.76356 -27.09258 172 ft 45 kts 140°
2026-05-06 23:17 38.76150 -27.09042 174 ft 32 kts 141°
2026-05-06 23:17 38.76047 -27.08937 175 ft 13 kts 138°
2026-05-06 23:18 38.75988 -27.08887 176 ft 8 kts 180°
2026-05-06 23:18 38.75948 -27.08892 175 ft 4 kts 186°
2026-05-06 23:18 38.75937 -27.08893 175 ft 0 kts 185°
2026-05-06 23:19 38.75869 -27.08901 174 ft 20 kts 186°
2026-05-06 23:19 38.75714 -27.08911 173 ft 23 kts 172°
2026-05-06 23:19 38.75613 -27.08817 173 ft 14 kts 142°
2026-05-06 23:19 38.75578 -27.08780 172 ft 2 kts 139°
2026-05-06 23:20 38.75577 -27.08779 172 ft 1 kts 140°
2026-05-06 23:20 38.75538 -27.08738 172 ft 10 kts 141°
2026-05-06 23:20 38.75493 -27.08712 172 ft 5 kts 206°
2026-05-06 23:20 38.75475 -27.08735 172 ft 3 kts 227°
2026-05-06 23:21 38.75472 -27.08739 172 ft 0 kts 228°